Time;durP1;ratioP1;P1;durP2;ratioP2;P2;SDS_P1;SDS_P2;PMS_P1;PMS_P2;Temp;Humidity;BMP_temperature;BMP_pressure;BME280_temperature;BME280_humidity;BME280_pressure;Samples;Min_cycle;Max_cycle;Signal;HPM_P1;HPM_P2
2022/05/28 00:00:33;;;;;;;3.03;0.90;;;;;;;8.71;100.00;98314.06;4445985;32;20477;-74
2022/05/28 00:03:03;;;;;;;2.42;1.08;;;;;;;8.82;100.00;98312.28;4447624;32;20046;-74
2022/05/28 00:05:29;;;;;;;1.08;0.60;;;;;;;9.01;100.00;98344.09;4446002;32;20415;-74
2022/05/28 00:07:56;;;;;;;0.68;0.68;;;;;;;8.99;100.00;98365.81;4444368;32;20038;-74
2022/05/28 00:10:22;;;;;;;3.10;1.08;;;;;;;8.98;100.00;98356.13;4445375;32;20440;-74
2022/05/28 00:12:49;;;;;;;7.28;1.00;;;;;;;8.66;100.00;98321.25;4446802;32;20041;-74
2022/05/28 00:15:17;;;;;;;3.37;1.20;;;;;;;8.94;100.00;98354.25;4444852;32;20053;-74
2022/05/28 00:17:43;;;;;;;1.52;1.23;;;;;;;9.00;100.00;98363.94;4444431;32;20135;-75
2022/05/28 00:20:10;;;;;;;1.92;1.10;;;;;;;8.83;100.00;98354.13;4446407;32;20416;-74
2022/05/28 00:22:43;;;;;;;4.72;1.40;;;;;;;8.88;100.00;98361.44;4445121;32;20083;-74
2022/05/28 00:25:12;;;;;;;5.10;1.40;;;;;;;8.94;100.00;98349.69;4444041;32;20382;-74
2022/05/28 00:27:39;;;;;;;1.35;0.70;;;;;;;8.81;100.00;98347.44;4451760;32;20132;-74
2022/05/28 00:30:09;;;;;;;0.98;0.80;;;;;;;8.50;100.00;98344.44;4452716;32;20411;-74
2022/05/28 00:32:36;;;;;;;3.05;0.75;;;;;;;8.65;100.00;98352.63;4461951;32;20422;-74
2022/05/28 00:35:04;;;;;;;1.25;1.12;;;;;;;8.57;100.00;98347.72;4460407;32;20045;-75
2022/05/28 00:37:30;;;;;;;9.35;1.15;;;;;;;8.44;100.00;98345.44;4460271;32;20427;-73
2022/05/28 00:39:57;;;;;;;1.83;1.50;;;;;;;8.24;100.00;98346.81;4464075;32;20046;-71
2022/05/28 00:42:23;;;;;;;7.37;1.80;;;;;;;8.06;100.00;98355.16;4463230;32;20102;-72
2022/05/28 00:44:50;;;;;;;1.40;1.02;;;;;;;8.15;100.00;98353.66;4460196;32;20049;-74
2022/05/28 00:47:17;;;;;;;5.70;1.70;;;;;;;8.04;100.00;98349.25;4459817;32;20034;-74
2022/05/28 00:49:50;;;;;;;4.05;1.20;;;;;;;7.73;100.00;98311.34;4463122;32;20933;-74
2022/05/28 00:52:20;;;;;;;8.60;1.40;;;;;;;8.16;100.00;98349.94;4463701;32;20037;-74
2022/05/28 00:54:48;;;;;;;1.92;1.35;;;;;;;7.96;100.00;98345.97;4464655;32;20194;-73
2022/05/28 00:57:16;;;;;;;6.87;1.70;;;;;;;8.13;100.00;98342.38;4462623;32;20408;-73
2022/05/28 00:59:44;;;;;;;1.60;1.48;;;;;;;8.02;100.00;98337.97;4464119;32;20067;-73
2022/05/28 01:02:31;;;;;;;2.15;1.27;;;;;;;8.16;100.00;98344.56;4464389;32;20042;-73
2022/05/28 01:05:15;;;;;;;5.07;1.08;;;;;;;8.03;100.00;98304.75;4462795;32;20063;-72
2022/05/28 01:07:49;;;;;;;5.87;1.48;;;;;;;8.10;100.00;98318.75;4458922;32;20093;-72
2022/05/28 01:10:50;;;;;;;4.72;1.02;;;;;;;8.27;100.00;98324.84;4463340;32;20038;-71
2022/05/28 01:13:22;;;;;;;3.67;1.33;;;;;;;8.20;100.00;98321.56;4432335;32;20029;-73
2022/05/28 01:15:55;;;;;;;1.92;1.10;;;;;;;7.98;100.00;98282.16;4463359;32;20342;-74
2022/05/28 01:18:29;;;;;;;2.85;1.30;;;;;;;8.34;100.00;98317.44;4463255;32;20361;-75
2022/05/28 01:21:10;;;;;;;3.08;1.10;;;;;;;8.37;100.00;98314.22;4463880;32;20053;-74
2022/05/28 01:23:50;;;;;;;2.40;1.33;;;;;;;7.82;100.00;98275.03;4463223;32;20059;-74
2022/05/28 01:26:43;;;;;;;2.12;1.30;;;;;;;8.10;100.00;98302.66;4463023;32;20355;-74
2022/05/28 01:29:15;;;;;;;4.70;1.60;;;;;;;8.16;100.00;98296.31;4435214;32;20415;-73
2022/05/28 01:31:42;;;;;;;;;;;;;;;8.13;100.00;98289.56;4461826;32;20057;-74
2022/05/28 01:34:09;;;;;;;2.53;1.35;;;;;;;8.15;100.00;98294.66;4463255;32;19970;-74
2022/05/28 01:36:37;;;;;;;2.37;1.60;;;;;;;8.23;100.00;98291.53;4460931;32;20460;-73
2022/05/28 01:39:06;;;;;;;5.07;1.75;;;;;;;8.30;100.00;98291.38;4463240;32;20081;-74
2022/05/28 01:41:34;;;;;;;3.47;1.30;;;;;;;8.36;100.00;98291.16;4461902;32;20426;-74
2022/05/28 01:44:01;;;;;;;9.90;2.10;;;;;;;8.16;100.00;98264.13;4462848;32;20064;-74
2022/05/28 01:46:29;;;;;;;7.10;1.80;;;;;;;8.20;100.00;98292.06;4463897;32;20365;-74
2022/05/28 01:48:57;;;;;;;2.33;1.62;;;;;;;8.20;100.00;98284.03;4463982;32;20040;-74
2022/05/28 01:51:32;;;;;;;4.18;1.92;;;;;;;8.19;100.00;98285.06;4463314;32;20110;-74
2022/05/28 01:54:07;;;;;;;3.45;2.10;;;;;;;8.09;100.00;98260.81;4463949;32;20053;-74
2022/05/28 01:56:35;;;;;;;3.28;1.37;;;;;;;8.22;100.00;98294.47;4462246;32;20541;-74
2022/05/28 01:59:02;;;;;;;3.50;1.33;;;;;;;8.26;100.00;98274.94;4447062;32;20041;-72
2022/05/28 02:01:29;;;;;;;3.30;0.95;;;;;;;8.08;100.00;98240.44;4452317;32;20037;-74
2022/05/28 02:04:01;;;;;;;4.55;1.60;;;;;;;8.18;100.00;98272.72;4461829;32;20381;-72
2022/05/28 02:06:28;;;;;;;3.95;1.27;;;;;;;8.31;100.00;98260.78;4462759;32;20045;-73
2022/05/28 02:08:55;;;;;;;4.15;1.40;;;;;;;8.25;100.00;98278.72;4463699;32;20205;-74
2022/05/28 02:11:27;;;;;;;13.05;1.55;;;;;;;7.95;100.00;98237.09;4462343;32;20460;-73
2022/05/28 02:14:17;;;;;;;10.20;2.17;;;;;;;8.30;100.00;98284.13;4463336;32;20844;-74
2022/05/28 02:16:57;;;;;;;2.00;1.90;;;;;;;8.18;100.00;98256.63;4461966;32;20089;-74
2022/05/28 02:19:35;;;;;;;9.45;1.83;;;;;;;7.92;100.00;98248.31;4463116;32;20518;-75
2022/05/28 02:22:13;;;;;;;4.25;1.25;;;;;;;8.39;100.00;98284.47;4460630;32;20444;-74
2022/05/28 02:24:49;;;;;;;3.35;1.48;;;;;;;8.19;100.00;98269.00;4462213;32;20038;-73
2022/05/28 02:27:20;;;;;;;5.65;2.15;;;;;;;8.53;100.00;98272.28;4462653;32;20070;-72
2022/05/28 02:29:47;;;;;;;4.35;1.35;;;;;;;8.50;100.00;98261.25;4463335;32;20059;-74
2022/05/28 02:32:22;;;;;;;3.05;1.35;;;;;;;8.10;100.00;98232.97;4462996;32;20190;-74
2022/05/28 02:34:50;;;;;;;2.40;1.27;;;;;;;8.64;100.00;98275.06;4455516;32;20426;-72
2022/05/28 02:37:20;;;;;;;4.80;1.80;;;;;;;8.60;100.00;98269.41;4446141;32;20022;-74
2022/05/28 02:39:47;;;;;;;7.20;1.73;;;;;;;8.50;100.00;98269.31;4450272;32;20324;-73
2022/05/28 02:42:14;;;;;;;1.33;1.12;;;;;;;8.62;100.00;98258.41;4458535;32;20077;-74
2022/05/28 02:44:41;;;;;;;1.92;1.10;;;;;;;8.64;100.00;98270.50;4453219;32;20109;-74
2022/05/28 02:47:07;;;;;;;12.37;1.30;;;;;;;8.40;100.00;98258.47;4461670;32;20742;-74
2022/05/28 02:49:34;;;;;;;5.80;2.25;;;;;;;8.59;100.00;98262.41;4462350;32;20067;-74
2022/05/28 02:52:02;;;;;;;6.30;2.00;;;;;;;8.50;100.00;98271.97;4460783;32;20071;-74
2022/05/28 02:54:36;;;;;;;3.12;1.23;;;;;;;8.49;100.00;98227.47;4460654;32;20407;-74
2022/05/28 02:57:04;;;;;;;9.70;1.10;;;;;;;8.52;100.00;98267.16;4460866;32;20401;-74
2022/05/28 02:59:31;;;;;;;5.43;1.37;;;;;;;8.62;100.00;98261.91;4462415;32;20037;-73
2022/05/28 03:01:58;;;;;;;3.10;1.20;;;;;;;8.41;100.00;98233.22;4461238;32;20041;-73
2022/05/28 03:04:24;;;;;;;6.18;1.50;;;;;;;8.54;100.00;98222.12;4462614;32;20480;-74
2022/05/28 03:06:52;;;;;;;7.28;1.30;;;;;;;8.48;100.00;98213.22;4460495;32;20067;-73
2022/05/28 03:09:18;;;;;;;2.83;1.45;;;;;;;8.62;100.00;98259.22;4461525;32;20857;-71
2022/05/28 03:11:45;;;;;;;4.85;1.55;;;;;;;8.56;100.00;98252.19;4462209;32;20033;-72
2022/05/28 03:14:11;;;;;;;4.05;1.45;;;;;;;8.33;100.00;98221.91;4462473;32;20045;-73
2022/05/28 03:16:39;;;;;;;4.45;1.08;;;;;;;8.68;100.00;98250.16;4460619;32;20053;-73
2022/05/28 03:19:05;;;;;;;7.00;1.42;;;;;;;8.60;100.00;98277.47;4459150;32;20046;-73
2022/05/28 03:21:31;;;;;;;9.23;1.25;;;;;;;8.64;100.00;98259.75;4460596;32;20038;-73
2022/05/28 03:23:58;;;;;;;21.08;1.48;;;;;;;8.64;100.00;98243.66;4462032;32;20059;-73
2022/05/28 03:26:27;;;;;;;2.45;1.00;;;;;;;8.89;100.00;98261.03;4460324;32;20067;-73
2022/05/28 03:28:56;;;;;;;7.05;1.52;;;;;;;8.86;100.00;98264.25;4461670;32;20402;-73
2022/05/28 03:31:24;;;;;;;3.30;1.58;;;;;;;8.60;100.00;98266.72;4460310;32;20946;-73
2022/05/28 03:33:57;;;;;;;3.92;1.15;;;;;;;8.57;100.00;98264.56;4461186;32;20050;-73
2022/05/28 03:36:25;;;;;;;11.93;1.90;;;;;;;8.68;100.00;98271.63;4460854;32;20077;-73
2022/05/28 03:38:52;;;;;;;1.55;1.17;;;;;;;8.59;100.00;98219.47;4460712;32;20041;-73
2022/05/28 03:41:18;;;;;;;4.93;1.23;;;;;;;8.43;100.00;98263.31;4458228;32;20045;-73
2022/05/28 03:43:45;;;;;;;4.78;2.45;;;;;;;8.60;100.00;98265.91;4462650;32;20053;-73
2022/05/28 03:46:33;;;;;;;8.68;2.45;;;;;;;8.53;100.00;98253.50;4460552;32;20071;-73
2022/05/28 03:49:05;;;;;;;6.30;1.67;;;;;;;8.29;100.00;98220.78;4458870;32;20044;-73
2022/05/28 03:51:31;;;;;;;;;;;;;;;8.56;100.00;98262.91;4460824;32;20045;-73
2022/05/28 03:53:58;;;;;;;3.62;1.42;;;;;;;8.58;100.00;98263.47;4460994;32;19946;-73
2022/05/28 03:56:32;;;;;;;4.60;1.30;;;;;;;8.46;100.00;98244.06;4459446;32;20049;-73
2022/05/28 03:58:58;;;;;;;6.65;1.35;;;;;;;8.45;100.00;98229.03;4446525;32;20062;-73
2022/05/28 04:01:24;;;;;;;6.07;1.67;;;;;;;8.55;100.00;98266.66;4445539;32;20014;-72
2022/05/28 04:03:51;;;;;;;5.07;1.37;;;;;;;8.40;100.00;98231.63;4445551;32;20398;-71
2022/05/28 04:06:17;;;;;;;6.18;1.42;;;;;;;8.47;100.00;98259.06;4448552;32;20063;-73
2022/05/28 04:08:44;;;;;;;4.00;1.50;;;;;;;8.32;100.00;98257.84;4460054;32;20095;-72
2022/05/28 04:11:11;;;;;;;10.10;2.30;;;;;;;8.14;100.00;98220.69;4462341;32;20041;-72
2022/05/28 04:13:37;;;;;;;4.97;1.80;;;;;;;8.27;100.00;98243.59;4461363;32;20374;-71
2022/05/28 04:16:04;;;;;;;5.15;1.50;;;;;;;8.63;100.00;98263.53;4454651;32;20034;-71
2022/05/28 04:18:30;;;;;;;2.75;1.52;;;;;;;8.68;100.00;98260.88;4445474;32;20038;-71
2022/05/28 04:20:57;;;;;;;5.45;1.73;;;;;;;8.22;100.00;98209.47;4444305;32;20058;-71
2022/05/28 04:23:23;;;;;;;2.20;1.23;;;;;;;8.23;100.00;98219.13;4466716;32;20909;-71
2022/05/28 04:25:50;;;;;;;7.65;1.45;;;;;;;8.29;100.00;98263.72;4465742;32;20038;-71
2022/05/28 04:28:17;;;;;;;6.00;1.23;;;;;;;8.41;100.00;98268.09;4463449;32;20431;-70
2022/05/28 04:30:43;;;;;;;6.28;1.10;;;;;;;8.50;100.00;98285.41;4462608;32;20373;-72
2022/05/28 04:33:09;;;;;;;3.42;1.30;;;;;;;7.93;100.00;98206.22;4462681;32;20317;-71
2022/05/28 04:35:36;;;;;;;5.47;1.40;;;;;;;8.64;100.00;98270.50;4464672;32;20053;-71
2022/05/28 04:38:02;;;;;;;1.25;0.95;;;;;;;8.60;100.00;98280.16;4449279;32;20369;-71
2022/05/28 04:40:29;;;;;;;3.08;1.40;;;;;;;8.12;100.00;98220.94;4449599;32;20063;-71
2022/05/28 04:42:55;;;;;;;1.75;1.10;;;;;;;8.61;100.00;98280.94;4461016;32;20432;-71
2022/05/28 04:45:22;;;;;;;3.35;1.08;;;;;;;8.53;100.00;98285.69;4460965;32;20050;-72
2022/05/28 04:47:48;;;;;;;7.80;1.70;;;;;;;8.58;100.00;98282.25;4454161;32;20064;-71
2022/05/28 04:50:15;;;;;;;5.82;1.30;;;;;;;8.68;100.00;98273.47;4461090;32;20030;-71
2022/05/28 04:52:41;;;;;;;1.95;1.40;;;;;;;8.67;100.00;98285.28;4463086;32;20055;-72
2022/05/28 04:55:11;;;;;;;3.75;1.27;;;;;;;8.72;100.00;98283.44;4463468;32;20374;-72
2022/05/28 04:57:37;;;;;;;3.28;0.95;;;;;;;8.67;100.00;98227.06;4463298;32;20059;-72
2022/05/28 05:00:08;;;;;;;2.67;0.90;;;;;;;8.99;100.00;98271.84;4464041;32;20106;-73
2022/05/28 05:02:35;;;;;;;4.47;1.75;;;;;;;9.03;100.00;98272.97;4458596;32;20059;-74
2022/05/28 05:05:02;;;;;;;6.50;0.93;;;;;;;9.23;100.00;98276.84;4463085;32;20041;-73
2022/05/28 05:07:28;;;;;;;4.45;1.70;;;;;;;8.50;100.00;98231.75;4464326;32;20067;-74
2022/05/28 05:09:55;;;;;;;6.30;1.40;;;;;;;9.04;100.00;98279.94;4464588;32;20067;-74
2022/05/28 05:12:22;;;;;;;2.28;0.93;;;;;;;8.95;100.00;98284.19;4463659;32;20169;-74
2022/05/28 05:14:48;;;;;;;2.80;1.30;;;;;;;8.78;100.00;98278.16;4456153;32;20063;-74
2022/05/28 05:17:15;;;;;;;3.80;1.10;;;;;;;8.97;100.00;98279.34;4460149;32;20041;-73
2022/05/28 05:19:41;;;;;;;5.35;1.30;;;;;;;8.95;100.00;98308.34;4463972;32;20059;-73
2022/05/28 05:24:41;;;;;;;2.30;1.17;;;;;;;9.00;100.00;98262.72;4461585;32;20042;-71
2022/05/28 05:27:09;;;;;;;3.75;1.90;;;;;;;9.13;100.00;98272.22;4452258;32;20423;-66
2022/05/28 05:29:35;;;;;;;2.67;1.12;;;;;;;9.00;100.00;98245.78;4453943;32;20056;-66
2022/05/28 05:32:02;;;;;;;1.30;1.17;;;;;;;8.72;100.00;98229.78;4453825;32;20165;-66
2022/05/28 05:34:28;;;;;;;1.85;1.70;;;;;;;8.88;100.00;98297.81;4445742;32;20034;-66
2022/05/28 05:37:01;;;;;;;1.25;1.17;;;;;;;9.20;100.00;98285.41;4454212;32;20071;-66
2022/05/28 05:39:27;;;;;;;5.78;1.60;;;;;;;9.28;100.00;98282.25;4450186;32;20045;-65
2022/05/28 05:41:55;;;;;;;7.53;1.40;;;;;;;9.44;100.00;98283.97;4462643;32;20200;-68
2022/05/28 05:44:22;;;;;;;6.68;1.00;;;;;;;9.07;100.00;98279.41;4461622;32;20034;-68
2022/05/28 05:46:48;;;;;;;4.82;0.70;;;;;;;9.24;100.00;98278.47;4462945;32;20172;-66
2022/05/28 05:49:15;;;;;;;3.97;2.50;;;;;;;9.17;100.00;98294.78;4457400;32;20052;-67
2022/05/28 05:51:44;;;;;;;5.03;1.23;;;;;;;9.14;100.00;98308.72;4446540;32;20415;-67
2022/05/28 05:54:12;;;;;;;4.15;1.10;;;;;;;9.04;100.00;98239.66;4446563;32;20085;-68
2022/05/28 05:56:39;;;;;;;3.80;1.40;;;;;;;9.41;100.00;98281.81;4453761;32;20097;-67
2022/05/28 05:59:05;;;;;;;6.50;2.53;;;;;;;9.54;100.00;98266.25;4460162;32;20439;-68
2022/05/28 06:01:32;;;;;;;5.65;1.40;;;;;;;9.47;100.00;98228.06;4462561;32;20067;-68
2022/05/28 06:03:59;;;;;;;5.82;1.10;;;;;;;9.60;100.00;98260.63;4462085;32;20431;-67
2022/05/28 06:06:26;;;;;;;5.37;1.25;;;;;;;9.40;100.00;98280.16;4447600;32;20165;-68
2022/05/28 06:08:52;;;;;;;7.72;1.42;;;;;;;9.39;100.00;98278.53;4460342;32;20496;-67
2022/05/28 06:11:19;;;;;;;4.62;1.10;;;;;;;9.54;100.00;98267.09;4463349;32;20397;-67
2022/05/28 06:13:45;;;;;;;4.43;1.40;;;;;;;9.03;100.00;98261.38;4461510;32;20045;-68
2022/05/28 06:16:12;;;;;;;3.55;1.30;;;;;;;9.31;100.00;98278.25;4452244;32;20053;-69
2022/05/28 06:18:40;;;;;;;7.32;1.42;;;;;;;9.54;100.00;98277.00;4451577;32;20095;-67
2022/05/28 06:21:06;;;;;;;5.22;1.10;;;;;;;9.26;100.00;98287.88;4444548;32;20041;-67
2022/05/28 06:23:32;;;;;;;4.40;1.42;;;;;;;9.26;100.00;98287.06;4445925;32;20042;-67
2022/05/28 06:25:59;;;;;;;11.85;1.35;;;;;;;9.04;100.00;98231.59;4446999;32;20075;-68
2022/05/28 06:28:25;;;;;;;5.12;1.98;;;;;;;8.97;100.00;98247.13;4455728;32;20034;-68
2022/05/28 06:30:52;;;;;;;2.65;0.90;;;;;;;9.08;100.00;98251.50;4460250;32;20057;-68
2022/05/28 06:33:19;;;;;;;3.60;1.35;;;;;;;9.44;100.00;98273.22;4458902;32;20071;-67
2022/05/28 06:35:45;;;;;;;3.87;0.85;;;;;;;9.76;100.00;98291.09;4456511;32;20041;-67
2022/05/28 06:38:12;;;;;;;7.68;1.35;;;;;;;9.38;100.00;98241.19;4445694;32;20380;-68
2022/05/28 06:40:38;;;;;;;2.85;1.00;;;;;;;9.52;100.00;98236.16;4451806;32;20070;-67
2022/05/28 06:43:05;;;;;;;9.95;1.35;;;;;;;9.93;100.00;98257.81;4449365;32;20052;-67
2022/05/28 06:45:32;;;;;;;3.28;1.02;;;;;;;9.95;100.00;98216.13;4444351;32;20038;-67
2022/05/28 06:47:59;;;;;;;5.53;1.00;;;;;;;10.03;100.00;98295.50;4456358;32;20046;-68
2022/05/28 06:53:10;;;;;;;1.30;0.93;;;;;;;9.59;100.00;98275.16;4453899;32;20076;-68
2022/05/28 06:55:37;;;;;;;5.65;1.23;;;;;;;9.57;100.00;98282.69;4445298;32;20075;-69
2022/05/28 06:58:06;;;;;;;7.57;1.95;;;;;;;9.20;100.00;98247.81;4457227;32;20071;-67
2022/05/28 07:00:36;;;;;;;2.42;1.00;;;;;;;9.37;100.00;98290.62;4456480;32;20057;-67
2022/05/28 07:03:03;;;;;;;5.22;1.08;;;;;;;9.53;100.00;98238.59;4457572;32;20068;-67
2022/05/28 07:05:36;;;;;;;4.85;2.42;;;;;;;9.44;100.00;98278.59;4448588;32;20046;-67
2022/05/28 07:08:03;;;;;;;5.93;1.30;;;;;;;9.47;100.00;98276.44;4452660;32;20339;-68
2022/05/28 07:10:29;;;;;;;2.40;1.20;;;;;;;9.20;100.00;98245.12;4456836;32;20814;-68
2022/05/28 07:12:56;;;;;;;0.80;0.80;;;;;;;9.68;100.00;98302.34;4460742;32;20389;-67
2022/05/28 07:15:23;;;;;;;4.57;1.15;;;;;;;9.69;100.00;98279.78;4456359;32;20063;-67
2022/05/28 07:17:50;;;;;;;5.47;0.95;;;;;;;9.96;100.00;98289.56;4460605;32;20050;-67
2022/05/28 07:20:16;;;;;;;4.22;0.95;;;;;;;9.81;100.00;98261.56;4455904;32;20071;-67
2022/05/28 07:22:43;;;;;;;1.10;1.10;;;;;;;9.62;100.00;98233.50;4459881;32;20075;-67
2022/05/28 07:25:10;;;;;;;9.90;1.42;;;;;;;9.58;100.00;98241.28;4461206;32;20049;-66
2022/05/28 07:27:36;;;;;;;16.55;2.90;;;;;;;10.09;100.00;98270.22;4455678;32;20063;-66
2022/05/28 07:30:04;;;;;;;14.00;1.45;;;;;;;10.24;100.00;98268.66;4454452;32;20055;-66
2022/05/28 07:32:37;;;;;;;2.03;1.15;;;;;;;10.16;100.00;98246.59;4460686;32;20053;-66
2022/05/28 07:35:05;;;;;;;10.80;1.12;;;;;;;10.27;100.00;98262.75;4459017;32;20041;-68
2022/05/28 07:37:31;;;;;;;2.92;1.20;;;;;;;9.79;100.00;98215.28;4458440;32;20042;-67
2022/05/28 07:39:58;;;;;;;3.08;0.82;;;;;;;9.91;100.00;98286.87;4454705;32;20062;-67
2022/05/28 07:42:28;;;;;;;3.25;0.93;;;;;;;10.08;100.00;98255.16;4458245;32;20087;-67
2022/05/28 07:44:55;;;;;;;3.87;1.20;;;;;;;10.32;100.00;98246.59;4456149;32;20021;-68
2022/05/28 07:47:22;;;;;;;4.32;1.02;;;;;;;10.43;100.00;98256.34;4456746;32;20063;-68
2022/05/28 07:49:48;;;;;;;11.02;1.20;;;;;;;10.10;100.00;98244.97;4459576;32;20075;-69
2022/05/28 07:52:17;;;;;;;4.72;0.80;;;;;;;10.59;100.00;98242.91;4459656;32;20037;-66
2022/05/28 07:54:43;;;;;;;4.00;1.15;;;;;;;10.81;100.00;98240.72;4461338;32;20393;-67
2022/05/28 07:57:09;;;;;;;2.62;1.27;;;;;;;10.79;100.00;98232.13;4459995;32;20042;-67
2022/05/28 07:59:36;;;;;;;1.62;0.85;;;;;;;11.20;100.00;98226.69;4458447;32;20191;-67
2022/05/28 08:02:03;;;;;;;5.93;1.20;;;;;;;11.19;100.00;98252.00;4459007;32;20041;-68
2022/05/28 08:04:30;;;;;;;2.45;1.05;;;;;;;10.74;100.00;98240.22;4453664;32;20111;-67
2022/05/28 08:06:57;;;;;;;5.37;1.12;;;;;;;10.60;100.00;98239.94;4445460;32;20022;-68
2022/05/28 08:09:23;;;;;;;4.62;0.80;;;;;;;10.03;100.00;98198.66;4458184;32;20061;-68
2022/05/28 08:11:50;;;;;;;0.62;0.62;;;;;;;10.10;100.00;98241.44;4451465;32;20235;-71
2022/05/28 08:14:17;;;;;;;1.30;1.02;;;;;;;9.52;100.00;98246.91;4456049;32;20042;-67
2022/05/28 08:16:43;;;;;;;3.55;1.15;;;;;;;9.44;100.00;98235.59;4457917;32;20053;-66
2022/05/28 08:19:10;;;;;;;3.33;0.80;;;;;;;9.55;100.00;98219.50;4457262;32;20400;-68
2022/05/28 08:24:21;;;;;;;4.85;1.52;;;;;;;10.12;100.00;98213.22;4458914;32;20063;-68
2022/05/28 08:26:48;;;;;;;3.65;0.90;;;;;;;10.51;100.00;98196.63;4458531;32;20045;-68
2022/05/28 08:29:14;;;;;;;8.23;1.48;;;;;;;10.34;100.00;98228.34;4457316;32;20101;-68
2022/05/28 08:31:41;;;;;;;1.50;1.37;;;;;;;10.40;100.00;98165.38;4458499;32;20440;-68
2022/05/28 08:34:07;;;;;;;5.18;1.60;;;;;;;10.69;100.00;98210.56;4450634;32;20041;-69
2022/05/28 08:36:34;;;;;;;2.62;1.20;;;;;;;10.82;100.00;98193.88;4455991;32;20067;-68
2022/05/28 08:39:00;;;;;;;7.28;2.20;;;;;;;10.13;100.00;98193.31;4445494;32;20386;-68
2022/05/28 08:41:52;;;;;;;1.67;1.15;;;;;;;10.20;100.00;98224.53;4460932;32;20063;-69
2022/05/28 08:44:27;;;;;;;5.05;1.67;;;;;;;10.26;100.00;98220.75;4445204;32;20655;-68
2022/05/28 08:46:59;;;;;;;4.90;1.20;;;;;;;9.82;100.00;98197.81;4459941;32;20041;-68
2022/05/28 08:49:27;;;;;;;8.05;3.03;;;;;;;10.27;100.00;98208.94;4459357;32;20041;-70
2022/05/28 08:52:04;;;;;;;6.07;1.20;;;;;;;10.34;100.00;98210.31;4459253;32;20075;-67
2022/05/28 08:54:56;;;;;;;5.00;1.00;;;;;;;10.16;100.00;98179.34;4444767;32;20346;-67
2022/05/28 08:57:50;;;;;;;1.60;1.20;;;;;;;10.30;100.00;98214.56;4444472;32;20034;-66
2022/05/28 09:00:37;;;;;;;9.43;1.12;;;;;;;10.61;100.00;98179.66;4453695;32;20094;-67
2022/05/28 09:03:09;;;;;;;9.70;1.45;;;;;;;11.23;100.00;98195.66;4453832;32;20053;-67
2022/05/28 09:06:10;;;;;;;3.03;1.77;;;;;;;11.01;100.00;98223.75;4445614;32;20102;-67
2022/05/28 09:08:40;;;;;;;4.75;1.25;;;;;;;11.35;100.00;98242.00;4445688;32;20049;-66
2022/05/28 09:11:16;;;;;;;7.05;1.00;;;;;;;11.17;100.00;98235.31;4446260;32;20034;-67
2022/05/28 09:13:47;;;;;;;1.98;0.95;;;;;;;11.10;100.00;98221.28;4456506;32;20252;-67
2022/05/28 09:16:36;;;;;;;3.92;1.02;;;;;;;11.02;100.00;98214.56;4446848;32;20071;-66
2022/05/28 09:19:12;;;;;;;1.40;1.05;;;;;;;11.07;100.00;98216.44;4445930;32;20030;-67
2022/05/28 09:21:39;;;;;;;2.05;0.80;;;;;;;11.20;100.00;98162.00;4445705;32;20118;-67
2022/05/28 09:24:21;;;;;;;7.47;1.27;;;;;;;11.44;100.00;98201.81;4448326;32;20054;-68
2022/05/28 09:27:16;;;;;;;7.78;1.23;;;;;;;11.37;100.00;98155.47;4452110;32;20099;-67
2022/05/28 09:29:57;;;;;;;3.12;1.48;;;;;;;12.09;100.00;98192.88;4459865;32;20435;-66
2022/05/28 09:32:39;;;;;;;3.62;2.50;;;;;;;12.08;100.00;98207.47;4458451;32;20072;-67
2022/05/28 09:35:22;;;;;;;6.78;1.10;;;;;;;11.74;100.00;98214.38;4453554;32;20115;-67
2022/05/28 09:38:12;;;;;;;4.28;0.60;;;;;;;10.82;100.00;98253.13;4461351;32;20049;-67
2022/05/28 09:40:45;;;;;;;4.72;0.82;;;;;;;10.14;100.00;98248.72;4451896;32;20056;-66
2022/05/28 09:43:15;;;;;;;2.33;1.02;;;;;;;9.86;100.00;98215.06;4456964;32;20063;-66
2022/05/28 09:45:56;;;;;;;5.37;1.42;;;;;;;10.12;100.00;98244.69;4460287;32;20370;-68
2022/05/28 09:48:26;;;;;;;5.62;1.45;;;;;;;10.12;100.00;98228.56;4457132;32;20066;-67
2022/05/28 09:50:53;;;;;;;3.85;1.12;;;;;;;10.11;100.00;98226.94;4459055;32;20033;-67
2022/05/28 09:56:24;;;;;;;;;;;;;;;10.37;100.00;98257.44;4460324;32;20041;-67
2022/05/28 09:58:51;;;;;;;1.98;1.58;;;;;;;10.33;100.00;98294.81;4457022;32;19941;-66
2022/05/28 10:01:21;;;;;;;2.85;0.93;;;;;;;9.40;100.00;98296.28;4445131;32;20245;-68
2022/05/28 10:06:43;;;;;;;2.03;0.82;;;;;;;8.73;100.00;98295.81;4445768;32;20082;-66
2022/05/28 10:09:17;;;;;;;0.73;0.73;;;;;;;8.30;100.00;98249.25;4446378;32;20053;-68
2022/05/28 10:11:56;;;;;;;0.70;0.70;;;;;;;8.49;100.00;98273.88;4447916;32;20042;-66
2022/05/28 10:14:24;;;;;;;3.12;1.27;;;;;;;8.33;100.00;98248.75;4447168;32;20067;-68
2022/05/28 10:16:57;;;;;;;1.27;0.98;;;;;;;8.09;100.00;98298.34;4445041;32;20067;-67
2022/05/28 10:19:32;;;;;;;1.75;1.20;;;;;;;8.21;100.00;98317.81;4447220;32;20029;-67
2022/05/28 10:22:03;;;;;;;0.70;0.70;;;;;;;7.68;100.00;98289.84;4449455;32;21478;-67
2022/05/28 10:24:40;;;;;;;1.58;0.85;;;;;;;8.04;100.00;98325.13;4448370;32;20037;-69
2022/05/28 10:27:22;;;;;;;2.70;0.73;;;;;;;7.80;100.00;98325.38;4448140;32;20124;-68
2022/05/28 10:42:21;;;;;;;1.73;0.65;;;;;;;9.22;100.00;98259.09;4442559;32;20381;-69
2022/05/28 10:44:48;;;;;;;3.70;1.10;;;;;;;9.22;100.00;98259.09;4434821;32;20054;-70
2022/05/28 10:47:32;;;;;;;1.73;0.60;;;;;;;9.14;100.00;98262.28;4427045;32;20079;-72
2022/05/28 10:50:18;;;;;;;0.90;0.80;;;;;;;9.37;100.00;98263.78;4425263;32;20053;-70
2022/05/28 10:52:53;;;;;;;1.90;0.93;;;;;;;9.76;100.00;98285.72;4426637;32;20054;-72
2022/05/28 10:55:41;;;;;;;1.27;0.80;;;;;;;10.05;100.00;98263.78;4432469;32;20050;-72
2022/05/28 10:58:15;;;;;;;0.70;0.70;;;;;;;10.23;100.00;98234.75;4429904;32;20601;-72
2022/05/28 11:01:05;;;;;;;2.00;0.70;;;;;;;11.12;100.00;98256.06;4429499;32;20060;-71
2022/05/28 11:03:46;;;;;;;3.08;0.90;;;;;;;11.06;100.00;98247.97;4428699;32;20041;-71
2022/05/28 11:06:26;;;;;;;3.85;0.88;;;;;;;10.65;100.00;98257.97;4427731;32;20062;-71
2022/05/28 11:09:18;;;;;;;4.10;0.73;;;;;;;10.89;100.00;98237.50;4431379;32;20070;-69
2022/05/28 11:12:04;;;;;;;2.60;1.00;;;;;;;11.20;100.00;98197.03;4433754;32;20050;-67
2022/05/28 11:15:01;;;;;;;1.42;1.33;;;;;;;11.29;100.00;98266.53;4424360;32;20094;-69
2022/05/28 11:17:58;;;;;;;3.70;0.88;;;;;;;11.45;100.00;98246.53;4435279;32;20042;-67
2022/05/28 11:20:32;;;;;;;0.85;0.80;;;;;;;10.98;100.00;98255.81;4436050;32;20067;-68
2022/05/28 11:23:22;;;;;;;2.62;0.70;;;;;;;11.08;100.00;98255.78;4424818;32;20050;-68
2022/05/28 11:25:51;;;;;;;0.80;0.80;;;;;;;11.30;100.00;98246.59;4426583;32;20072;-67
2022/05/28 11:28:29;;;;;;;0.60;0.60;;;;;;;11.94;100.00;98272.81;4427544;32;20046;-67
2022/05/28 11:31:10;;;;;;;0.65;0.65;;;;;;;10.82;100.00;98257.72;4425913;32;20067;-68
2022/05/28 11:33:40;;;;;;;0.50;0.50;;;;;;;11.66;100.00;98249.16;4430200;32;20090;-68
2022/05/28 11:36:15;;;;;;;0.80;0.80;;;;;;;11.76;100.00;98222.19;4426683;32;20080;-67
2022/05/28 11:38:51;;;;;;;1.20;0.62;;;;;;;12.64;100.00;98242.16;4428157;32;20078;-69
2022/05/28 11:41:46;;;;;;;0.70;0.70;;;;;;;12.17;100.00;98211.16;4431729;32;20050;-68
2022/05/28 11:44:37;;;;;;;2.25;0.60;;;;;;;12.03;100.00;98223.66;4421455;32;20370;-68
2022/05/28 11:47:29;;;;;;;0.55;0.55;;;;;;;12.42;100.00;98223.69;4428070;32;20060;-68
2022/05/28 11:52:55;;;;;;;0.80;0.60;;;;;;;12.79;100.00;98199.88;4415792;32;20350;-67
2022/05/28 11:55:28;;;;;;;1.08;1.00;;;;;;;12.84;100.00;98202.53;4424233;32;20042;-69
2022/05/28 11:58:00;;;;;;;1.58;0.70;;;;;;;13.22;100.00;98186.47;4415284;32;20251;-68
2022/05/28 12:00:32;;;;;;;1.08;0.70;;;;;;;13.70;100.00;98202.69;4415839;32;20089;-69
2022/05/28 12:03:14;;;;;;;0.88;0.82;;;;;;;13.22;100.00;98154.84;4414611;32;20101;-70
2022/05/28 12:05:56;;;;;;;2.45;0.70;;;;;;;12.96;100.00;98211.06;4413989;32;20054;-69
2022/05/28 12:08:35;;;;;;;0.70;0.70;;;;;;;13.35;100.00;98229.06;4421319;32;20088;-69
2022/05/28 12:11:05;;;;;;;1.23;0.70;;;;;;;12.84;100.00;98186.31;4429727;32;20751;-68
2022/05/28 12:13:35;;;;;;;1.10;0.73;;;;;;;13.23;100.00;98226.75;4422353;32;20058;-68
2022/05/28 12:16:13;;;;;;;1.75;0.90;;;;;;;13.28;100.00;98228.59;4416580;32;20076;-69
2022/05/28 14:23:23;;;;;;;2.05;0.80;;;;;;;13.47;100.00;98214.38;4372162;28;20078;-74